Time;durP1;ratioP1;P1;durP2;ratioP2;P2;SDS_P1;SDS_P2;PMS_P1;PMS_P2;Temp;Humidity;BMP_temperature;BMP_pressure;BME280_temperature;BME280_humidity;BME280_pressure;Samples;Min_cycle;Max_cycle;Signal;HPM_P1;HPM_P2
2023/12/02 00:00:44;;;;;;;21.63;8.73;;;;;;;-2.03;100.00;100900.22;6190560;23;20015;-89
2023/12/02 00:03:09;;;;;;;21.30;9.00;;;;;;;-2.03;100.00;100907.38;6190437;23;20615;-89
2023/12/02 00:05:35;;;;;;;21.23;9.00;;;;;;;-2.04;100.00;100897.69;6191236;23;20004;-89
2023/12/02 00:08:00;;;;;;;19.20;7.73;;;;;;;-2.03;100.00;100904.72;6190924;23;20062;-89
2023/12/02 00:10:26;;;;;;;19.83;9.17;;;;;;;-2.01;100.00;100890.31;6190754;23;20087;-89
2023/12/02 00:12:51;;;;;;;19.90;8.77;;;;;;;-1.98;100.00;100894.50;6165857;23;20092;-89
2023/12/02 00:15:19;;;;;;;19.47;8.43;;;;;;;-1.93;100.00;100892.31;6190716;23;20021;-89
2023/12/02 00:17:47;;;;;;;21.10;9.02;;;;;;;-1.91;100.00;100886.84;6166591;23;20099;-89
2023/12/02 00:20:17;;;;;;;19.90;8.80;;;;;;;-1.95;100.00;100887.13;6190981;23;20005;-88
2023/12/02 00:22:43;;;;;;;22.52;9.02;;;;;;;-2.03;100.00;100876.28;6166978;23;20055;-89
2023/12/02 00:25:08;;;;;;;19.00;8.90;;;;;;;-2.05;100.00;100886.22;6189797;23;20490;-89
2023/12/02 00:27:34;;;;;;;20.63;9.17;;;;;;;-2.04;100.00;100900.34;6190571;23;20047;-89
2023/12/02 00:29:59;;;;;;;19.30;7.80;;;;;;;-2.00;100.00;100896.47;6190617;23;20005;-89
2023/12/02 00:32:25;;;;;;;25.20;9.40;;;;;;;-2.01;100.00;100892.97;6165561;23;20335;-89
2023/12/02 00:34:56;;;;;;;21.33;8.82;;;;;;;-2.01;100.00;100890.31;6190322;23;20125;-89
2023/12/02 00:37:22;;;;;;;23.20;9.20;;;;;;;-2.00;100.00;100893.81;6190147;23;20009;-89
2023/12/02 00:39:47;;;;;;;19.40;8.60;;;;;;;-2.02;100.00;100895.75;6189982;23;20258;-89
2023/12/02 00:42:15;;;;;;;19.37;8.23;;;;;;;-2.03;100.00;100904.72;6165485;23;20016;-89
2023/12/02 00:44:44;;;;;;;21.20;8.70;;;;;;;-2.07;100.00;100888.16;6207772;23;20015;-88
2023/12/02 00:47:12;;;;;;;21.60;9.10;;;;;;;-2.08;100.00;100899.78;6220466;23;20000;-89
2023/12/02 00:49:37;;;;;;;20.98;8.85;;;;;;;-2.09;100.00;100900.75;6220271;23;20242;-88
2023/12/02 00:52:03;;;;;;;22.23;9.32;;;;;;;-2.07;100.00;100895.31;6220947;23;20086;-88
2023/12/02 00:54:28;;;;;;;20.38;8.18;;;;;;;-2.12;100.00;100899.19;6194290;23;20012;-89
2023/12/02 00:56:54;;;;;;;22.03;9.67;;;;;;;-2.15;100.00;100907.44;6219978;23;20015;-89
2023/12/02 00:59:19;;;;;;;21.52;9.73;;;;;;;-2.19;100.00;100900.69;6221429;23;20019;-89
2023/12/02 01:01:45;;;;;;;19.05;8.82;;;;;;;-2.20;100.00;100904.34;6220364;23;20001;-88
2023/12/02 01:04:13;;;;;;;20.93;8.97;;;;;;;-2.20;100.00;100904.34;6247211;23;20011;-88
2023/12/02 01:06:39;;;;;;;18.80;8.55;;;;;;;-2.22;100.00;100900.13;6195751;23;20445;-89
2023/12/02 01:09:05;;;;;;;18.17;8.20;;;;;;;-2.22;100.00;100900.97;6220598;23;20008;-89
2023/12/02 01:11:31;;;;;;;19.63;8.45;;;;;;;-2.23;100.00;100893.97;6195514;23;20008;-89
2023/12/02 01:13:56;;;;;;;21.08;8.73;;;;;;;-2.30;100.00;100893.63;6220606;23;20517;-89
2023/12/02 01:16:22;;;;;;;18.58;7.63;;;;;;;-2.30;100.00;100890.97;6246803;23;20388;-89
2023/12/02 01:18:47;;;;;;;23.70;9.50;;;;;;;-2.30;100.00;100893.63;6195447;23;20111;-89
2023/12/02 01:21:13;;;;;;;22.57;8.83;;;;;;;-2.29;100.00;100891.81;6247308;23;20000;-89
2023/12/02 01:23:38;;;;;;;19.23;8.13;;;;;;;-2.26;100.00;100888.06;6195792;23;20005;-89
2023/12/02 01:26:04;;;;;;;22.70;8.60;;;;;;;-2.24;100.00;100894.06;6196185;23;20016;-89
2023/12/02 01:28:29;;;;;;;20.00;9.20;;;;;;;-2.24;100.00;100886.97;6220101;23;20039;-89
2023/12/02 01:30:55;;;;;;;18.90;8.27;;;;;;;-2.23;100.00;100880.69;6219770;23;20007;-89
2023/12/02 01:33:20;;;;;;;20.45;9.30;;;;;;;-2.21;100.00;100889.34;6219515;23;20430;-88
2023/12/02 01:35:45;;;;;;;19.87;8.83;;;;;;;-2.17;100.00;100893.44;6220164;23;20326;-89
2023/12/02 01:38:11;;;;;;;22.83;9.00;;;;;;;-2.17;100.00;100896.09;6219737;23;20012;-88
2023/12/02 01:40:36;;;;;;;20.57;9.23;;;;;;;-2.16;100.00;100900.44;6220456;23;20087;-89
2023/12/02 01:43:03;;;;;;;22.77;9.43;;;;;;;-2.14;100.00;100903.81;6195781;23;20015;-88
2023/12/02 01:45:29;;;;;;;22.23;9.23;;;;;;;-2.13;100.00;100907.31;6247771;23;20008;-89
2023/12/02 01:47:56;;;;;;;22.17;9.65;;;;;;;-2.12;100.00;100914.31;6195217;23;20036;-88
2023/12/02 01:50:22;;;;;;;20.80;8.43;;;;;;;-2.12;100.00;100919.63;6195615;23;20023;-89
2023/12/02 01:52:48;;;;;;;19.90;8.93;;;;;;;-2.10;100.00;100925.66;6246424;23;20012;-89
2023/12/02 01:55:13;;;;;;;21.47;9.13;;;;;;;-2.09;100.00;100924.69;6169620;23;20058;-88
2023/12/02 01:57:39;;;;;;;21.00;9.18;;;;;;;-2.12;100.00;100914.31;6219562;23;20004;-89
2023/12/02 02:00:05;;;;;;;20.30;8.97;;;;;;;-2.13;100.00;100920.59;6219956;23;20050;-89
2023/12/02 02:02:31;;;;;;;21.15;9.07;;;;;;;-2.11;100.00;100918.66;6219781;23;20446;-89
2023/12/02 02:04:56;;;;;;;21.80;8.90;;;;;;;-2.15;100.00;100918.06;6219847;23;20005;-88
2023/12/02 02:07:22;;;;;;;19.33;8.23;;;;;;;-2.19;100.00;100921.97;6170049;23;20431;-89
2023/12/02 02:09:48;;;;;;;23.37;8.93;;;;;;;-2.24;100.00;100920.66;6171039;23;20008;-89
2023/12/02 02:12:14;;;;;;;22.20;9.25;;;;;;;-2.27;100.00;100921.78;6219664;23;20010;-88
2023/12/02 02:14:40;;;;;;;22.35;9.30;;;;;;;-2.30;100.00;100924.72;6245212;23;20012;-89
2023/12/02 02:17:05;;;;;;;18.40;8.37;;;;;;;-2.36;100.00;100911.91;6220042;23;20368;-88
2023/12/02 02:19:33;;;;;;;22.07;8.77;;;;;;;-2.36;100.00;100918.09;6246443;23;20422;-88
2023/12/02 02:21:59;;;;;;;23.52;9.30;;;;;;;-2.39;100.00;100912.16;6244740;23;20435;-88
2023/12/02 02:24:24;;;;;;;18.80;8.63;;;;;;;-2.39;100.00;100920.16;6219808;23;20063;-88
2023/12/02 02:26:50;;;;;;;22.58;9.63;;;;;;;-2.43;100.00;100922.22;6219740;23;20054;-89
2023/12/02 02:29:16;;;;;;;22.63;9.30;;;;;;;-2.45;100.00;100915.34;6171191;23;20008;-89
2023/12/02 02:31:41;;;;;;;20.52;8.70;;;;;;;-2.44;100.00;100919.69;6219661;23;20008;-88
2023/12/02 02:34:07;;;;;;;22.80;9.63;;;;;;;-2.46;100.00;100917.19;6195474;23;20043;-89
2023/12/02 02:36:32;;;;;;;23.67;9.77;;;;;;;-2.46;100.00;100919.84;6220459;23;20015;-88
2023/12/02 02:38:58;;;;;;;21.83;9.25;;;;;;;-2.48;100.00;100919.09;6194593;23;20016;-88
2023/12/02 02:41:23;;;;;;;22.73;9.97;;;;;;;-2.44;100.00;100923.19;6219835;23;20039;-88
2023/12/02 02:43:50;;;;;;;19.45;8.88;;;;;;;-2.41;100.00;100933.56;6195034;23;20446;-89
2023/12/02 02:46:16;;;;;;;23.47;9.97;;;;;;;-2.40;100.00;100937.09;6246230;23;20067;-88
2023/12/02 02:48:44;;;;;;;20.98;8.75;;;;;;;-2.38;100.00;100929.81;6219666;23;20039;-89
2023/12/02 02:51:12;;;;;;;20.55;9.23;;;;;;;-2.36;100.00;100934.03;6194660;23;20011;-88
2023/12/02 02:53:38;;;;;;;21.65;8.73;;;;;;;-2.33;100.00;100930.28;6194150;23;20015;-88
2023/12/02 02:56:04;;;;;;;21.27;9.63;;;;;;;-2.28;100.00;100938.69;6219635;23;20012;-89
2023/12/02 02:58:30;;;;;;;21.33;9.93;;;;;;;-2.25;100.00;100941.09;6220452;23;20083;-89
2023/12/02 03:00:55;;;;;;;23.73;9.53;;;;;;;-2.23;100.00;100943.63;6219616;23;20077;-89
2023/12/02 03:03:20;;;;;;;21.00;9.13;;;;;;;-2.25;100.00;100943.75;6245571;23;20087;-88
2023/12/02 03:05:46;;;;;;;22.67;8.82;;;;;;;-2.25;100.00;100954.38;6247164;23;20406;-89
2023/12/02 03:08:11;;;;;;;21.47;9.40;;;;;;;-2.22;100.00;100948.81;6220232;23;20280;-89
2023/12/02 03:10:37;;;;;;;22.27;9.83;;;;;;;-2.17;100.00;100953.72;6220130;23;20012;-88
2023/12/02 03:13:02;;;;;;;21.43;8.70;;;;;;;-2.18;100.00;100949.41;6169487;23;20004;-88
2023/12/02 03:15:27;;;;;;;21.83;9.20;;;;;;;-2.18;100.00;100944.91;6194517;23;20065;-89
2023/12/02 03:17:53;;;;;;;23.55;9.48;;;;;;;-2.17;100.00;100957.25;6219486;23;20016;-88
2023/12/02 03:20:18;;;;;;;24.60;10.10;;;;;;;-2.16;100.00;100945.63;6219598;23;20082;-89
2023/12/02 03:22:45;;;;;;;18.33;8.50;;;;;;;-2.16;100.00;100945.63;6219732;23;20445;-89
2023/12/02 03:25:11;;;;;;;22.38;9.45;;;;;;;-2.15;100.00;100951.81;6219289;23;20004;-88
2023/12/02 03:27:36;;;;;;;21.67;9.10;;;;;;;-2.16;100.00;100947.44;6195460;23;20012;-89
2023/12/02 03:30:02;;;;;;;20.50;8.88;;;;;;;-2.15;100.00;100957.94;6194647;23;20044;-89
2023/12/02 03:32:27;;;;;;;21.37;9.17;;;;;;;-2.15;100.00;100947.31;6196124;23;20034;-88
2023/12/02 03:34:53;;;;;;;23.17;9.77;;;;;;;-2.16;100.00;100939.47;6196450;23;20019;-88
2023/12/02 03:37:19;;;;;;;20.93;8.77;;;;;;;-2.17;100.00;100949.28;6248041;23;20004;-88
2023/12/02 03:39:44;;;;;;;20.73;9.13;;;;;;;-2.15;100.00;100943.81;6248633;23;20004;-88
2023/12/02 03:42:12;;;;;;;21.97;9.50;;;;;;;-2.16;100.00;100944.78;6196168;23;20004;-89
2023/12/02 03:44:40;;;;;;;24.02;9.50;;;;;;;-2.16;100.00;100939.47;6220839;23;20088;-88
2023/12/02 03:47:07;;;;;;;27.75;9.75;;;;;;;-2.22;100.00;100943.50;6196291;23;20418;-89
2023/12/02 03:49:32;;;;;;;21.33;8.97;;;;;;;-2.21;100.00;100947.84;6221489;23;20062;-89
2023/12/02 03:51:59;;;;;;;19.33;9.27;;;;;;;-2.25;100.00;100946.41;6220942;23;20434;-89
2023/12/02 03:54:24;;;;;;;21.63;9.13;;;;;;;-2.22;100.00;100947.97;6171883;23;20381;-88
2023/12/02 03:56:50;;;;;;;23.38;9.23;;;;;;;-2.26;100.00;100939.41;6220870;23;20031;-88
2023/12/02 03:59:15;;;;;;;23.87;10.07;;;;;;;-2.26;100.00;100952.69;6196097;23;20047;-88
2023/12/02 04:01:41;;;;;;;21.87;9.20;;;;;;;-2.29;100.00;100966.25;6247131;23;20058;-87
2023/12/02 04:04:07;;;;;;;23.70;9.10;;;;;;;-2.25;100.00;100980.13;6221257;23;20008;-89
2023/12/02 04:06:32;;;;;;;21.58;9.43;;;;;;;-2.22;100.00;100979.88;6248223;23;20004;-88
2023/12/02 04:08:58;;;;;;;22.85;10.60;;;;;;;-2.22;100.00;100950.63;6195519;23;20012;-88
2023/12/02 04:11:23;;;;;;;24.20;10.27;;;;;;;-2.24;100.00;100987.13;6196015;23;20104;-88
2023/12/02 04:13:49;;;;;;;21.40;9.73;;;;;;;-2.22;100.00;100980.69;6195875;23;20035;-88
2023/12/02 04:16:16;;;;;;;23.07;9.53;;;;;;;-2.22;100.00;100971.91;6247654;23;20005;-88
2023/12/02 04:18:42;;;;;;;23.08;9.48;;;;;;;-2.23;100.00;100991.47;6220781;23;20448;-88
2023/12/02 04:21:08;;;;;;;22.40;10.03;;;;;;;-2.24;100.00;100984.44;6195886;23;20008;-89
2023/12/02 04:23:35;;;;;;;20.42;8.80;;;;;;;-2.24;100.00;100995.09;6220783;23;20016;-88
2023/12/02 04:26:03;;;;;;;22.58;9.52;;;;;;;-2.23;100.00;100992.34;6221205;23;20004;-88
2023/12/02 04:28:28;;;;;;;23.92;10.15;;;;;;;-2.18;100.00;100999.91;6196289;23;20065;-88
2023/12/02 04:30:54;;;;;;;22.57;9.00;;;;;;;-2.17;100.00;100999.78;6247152;23;20000;-89
2023/12/02 04:33:19;;;;;;;22.07;8.97;;;;;;;-2.14;100.00;100994.22;6220948;23;20091;-88
2023/12/02 04:35:45;;;;;;;23.07;9.87;;;;;;;-2.10;100.00;101002.75;6195606;23;20016;-89
2023/12/02 04:38:13;;;;;;;25.50;10.85;;;;;;;-2.11;100.00;100993.13;6220546;23;20004;-88
2023/12/02 04:40:38;;;;;;;21.90;9.55;;;;;;;-2.12;100.00;101002.88;6247056;23;20077;-89
2023/12/02 04:43:04;;;;;;;24.70;10.00;;;;;;;-2.14;100.00;100998.66;6170272;23;20090;-88
2023/12/02 04:45:30;;;;;;;22.07;10.17;;;;;;;-2.14;100.00;100999.53;6220743;23;20086;-89
2023/12/02 04:47:56;;;;;;;24.83;10.85;;;;;;;-2.13;100.00;101001.22;6195698;23;20012;-89
2023/12/02 04:50:21;;;;;;;24.00;10.10;;;;;;;-2.13;100.00;100993.25;6220645;23;20008;-89
2023/12/02 04:52:47;;;;;;;23.58;9.98;;;;;;;-2.15;100.00;100992.50;6195685;23;20278;-89
2023/12/02 04:55:14;;;;;;;24.00;10.27;;;;;;;-2.12;100.00;101002.88;6220395;23;20023;-88
2023/12/02 04:57:40;;;;;;;27.45;10.95;;;;;;;-2.13;100.00;101000.34;6195860;23;20004;-89
2023/12/02 05:00:14;;;;;;;24.27;10.60;;;;;;;-2.10;100.00;101013.38;6220446;23;20066;-89
2023/12/02 05:02:43;;;;;;;22.70;9.25;;;;;;;-2.12;100.00;100997.56;6221308;23;20008;-89
2023/12/02 05:05:09;;;;;;;23.00;10.43;;;;;;;-2.16;100.00;101008.59;6220650;23;20012;-89
2023/12/02 05:07:35;;;;;;;25.13;10.23;;;;;;;-2.18;100.00;101007.88;6247261;23;20007;-88
2023/12/02 05:10:04;;;;;;;24.10;9.87;;;;;;;-2.20;100.00;101004.50;6220163;23;20007;-89
2023/12/02 05:12:30;;;;;;;24.52;10.63;;;;;;;-2.18;100.00;101010.53;6196560;23;20016;-89
2023/12/02 05:14:58;;;;;;;24.70;9.70;;;;;;;-2.18;100.00;101014.03;6195346;23;20338;-89
2023/12/02 05:17:27;;;;;;;22.47;9.80;;;;;;;-2.13;100.00;101021.63;6220159;23;20326;-88
2023/12/02 05:19:53;;;;;;;22.25;9.98;;;;;;;-2.12;100.00;101024.16;6247796;23;20241;-88
2023/12/02 05:22:19;;;;;;;22.88;9.82;;;;;;;-2.14;100.00;101028.78;6195498;23;20086;-88
2023/12/02 05:24:45;;;;;;;24.25;10.23;;;;;;;-2.11;100.00;101033.00;6220478;23;20008;-88
2023/12/02 05:27:10;;;;;;;22.47;9.97;;;;;;;-2.09;100.00;101033.69;6220135;23;20469;-88
2023/12/02 05:29:36;;;;;;;23.45;9.68;;;;;;;-2.13;100.00;101030.47;6246633;23;20058;-88
2023/12/02 05:32:01;;;;;;;23.00;10.03;;;;;;;-2.10;100.00;101036.50;6220720;23;20441;-88
2023/12/02 05:34:27;;;;;;;22.23;9.40;;;;;;;-2.11;100.00;101030.34;6219689;23;20012;-88
2023/12/02 05:36:52;;;;;;;25.93;10.27;;;;;;;-2.10;100.00;101033.84;6246893;23;20079;-89
2023/12/02 05:39:18;;;;;;;20.63;10.13;;;;;;;-2.13;100.00;101027.81;6220203;23;20004;-88
2023/12/02 05:41:43;;;;;;;25.38;10.93;;;;;;;-2.13;100.00;101035.78;6247476;23;20003;-88
2023/12/02 05:44:11;;;;;;;22.10;10.40;;;;;;;-2.18;100.00;101030.00;6219446;23;20024;-88
2023/12/02 05:46:37;;;;;;;24.65;9.85;;;;;;;-2.19;100.00;101022.16;6219929;23;20084;-89
2023/12/02 05:49:03;;;;;;;25.50;10.63;;;;;;;-2.21;100.00;101029.41;6220259;23;20051;-88
2023/12/02 05:51:28;;;;;;;24.88;11.07;;;;;;;-2.24;100.00;101014.56;6220184;23;20690;-89
2023/12/02 05:53:54;;;;;;;26.27;10.93;;;;;;;-2.28;100.00;101028.22;6194594;23;20034;-88
2023/12/02 05:56:20;;;;;;;22.67;9.57;;;;;;;-2.36;100.00;101016.41;6194881;23;20004;-89
2023/12/02 05:58:46;;;;;;;24.30;10.10;;;;;;;-2.41;100.00;101023.91;6220584;23;20315;-89
2023/12/02 06:01:18;;;;;;;24.92;10.23;;;;;;;-2.44;100.00;101053.41;6219710;23;20008;-88
2023/12/02 06:03:43;;;;;;;22.20;9.20;;;;;;;-2.50;100.00;101056.56;6222697;23;20009;-88
2023/12/02 06:06:12;;;;;;;24.87;9.90;;;;;;;-2.53;100.00;101057.66;6170219;23;20039;-89
2023/12/02 06:08:40;;;;;;;25.55;10.85;;;;;;;-2.56;100.00;101055.25;6219858;23;20386;-89
2023/12/02 06:11:06;;;;;;;23.38;10.35;;;;;;;-2.60;100.00;101064.44;6219718;23;20024;-89
2023/12/02 06:13:33;;;;;;;25.90;10.68;;;;;;;-2.66;100.00;101055.16;6194811;23;20011;-89
2023/12/02 06:15:59;;;;;;;25.58;10.68;;;;;;;-2.71;100.00;101067.97;6219783;23;20051;-88
2023/12/02 06:18:24;;;;;;;24.13;10.40;;;;;;;-2.69;100.00;101055.41;6219320;23;20363;-89
2023/12/02 06:20:50;;;;;;;26.10;11.57;;;;;;;-2.70;100.00;101052.84;6194661;23;20011;-88
2023/12/02 06:23:15;;;;;;;23.50;10.73;;;;;;;-2.68;100.00;101066.88;6220701;23;20012;-89
2023/12/02 06:25:41;;;;;;;23.80;10.27;;;;;;;-2.67;100.00;101061.44;6194793;23;20012;-89
2023/12/02 06:28:06;;;;;;;26.40;11.00;;;;;;;-2.67;100.00;101068.56;6219737;23;20419;-89
2023/12/02 06:30:31;;;;;;;30.50;11.27;;;;;;;-2.68;100.00;101066.88;6219900;23;20012;-89
2023/12/02 06:32:57;;;;;;;25.37;10.30;;;;;;;-2.61;100.00;101072.53;6219776;23;20450;-88
2023/12/02 06:35:23;;;;;;;29.27;11.10;;;;;;;-2.59;100.00;101073.25;6219441;23;20008;-89
2023/12/02 06:37:49;;;;;;;25.33;10.63;;;;;;;-2.59;100.00;101075.91;6247715;23;20004;-92
2023/12/02 06:40:14;;;;;;;25.23;10.90;;;;;;;-2.63;100.00;101064.69;6220892;23;20000;-93
2023/12/02 06:42:40;;;;;;;25.65;10.93;;;;;;;-2.68;100.00;101075.69;6220446;23;20036;-89
2023/12/02 06:45:06;;;;;;;27.80;10.65;;;;;;;-2.71;100.00;101083.06;6214775;23;20053;-89
2023/12/02 06:47:32;;;;;;;22.73;9.60;;;;;;;-2.73;100.00;101085.84;6189934;23;20016;-88
2023/12/02 06:49:58;;;;;;;28.00;11.07;;;;;;;-2.78;100.00;101090.66;6214464;23;20102;-88
2023/12/02 06:52:23;;;;;;;26.30;10.48;;;;;;;-2.78;100.00;101092.50;6189151;23;20260;-89
2023/12/02 06:54:48;;;;;;;30.73;11.80;;;;;;;-2.83;100.00;101099.00;6165583;23;20008;-89
2023/12/02 06:57:14;;;;;;;26.03;10.70;;;;;;;-2.79;100.00;101099.63;6215067;23;20481;-88
2023/12/02 06:59:39;;;;;;;29.08;11.48;;;;;;;-2.82;100.00;101098.03;6189523;23;20040;-89
2023/12/02 07:02:05;;;;;;;24.80;10.40;;;;;;;-2.78;100.00;101105.78;6214815;23;20009;-89
2023/12/02 07:04:30;;;;;;;26.47;11.23;;;;;;;-2.82;100.00;101108.66;6214850;23;20083;-89
2023/12/02 07:06:55;;;;;;;28.93;10.37;;;;;;;-2.86;100.00;101114.34;6217805;23;20031;-89
2023/12/02 07:09:21;;;;;;;28.23;10.48;;;;;;;-2.91;100.00;101112.06;6216380;23;20453;-89
2023/12/02 07:11:47;;;;;;;25.02;10.38;;;;;;;-2.92;100.00;101128.09;6215932;23;20008;-89
2023/12/02 07:14:12;;;;;;;27.07;11.13;;;;;;;-2.95;100.00;101129.19;6216528;23;20036;-89
2023/12/02 07:16:38;;;;;;;26.27;10.90;;;;;;;-2.95;100.00;101129.19;6216366;23;20439;-89
2023/12/02 07:19:04;;;;;;;27.85;11.32;;;;;;;-2.90;100.00;101134.16;6216182;23;20011;-89
2023/12/02 07:21:29;;;;;;;25.20;10.63;;;;;;;-2.98;100.00;101132.09;6192018;23;20493;-90
2023/12/02 07:23:54;;;;;;;25.50;11.13;;;;;;;-2.95;100.00;101138.94;6218314;23;20009;-89
2023/12/02 07:26:23;;;;;;;26.90;11.07;;;;;;;-2.96;100.00;101140.78;6216497;23;20300;-90
2023/12/02 07:28:48;;;;;;;26.52;10.40;;;;;;;-2.95;100.00;101138.94;6241398;23;20004;-89
2023/12/02 07:31:15;;;;;;;28.47;11.37;;;;;;;-2.92;100.00;101141.38;6167161;23;20008;-89
2023/12/02 07:33:41;;;;;;;32.00;12.68;;;;;;;-2.91;100.00;101143.06;6216042;23;20040;-88
2023/12/02 07:36:07;;;;;;;26.23;10.93;;;;;;;-2.88;100.00;101143.69;6216236;23;20004;-90
2023/12/02 07:38:33;;;;;;;29.23;12.35;;;;;;;-2.90;100.00;101142.09;6216675;23;20431;-90
2023/12/02 07:40:58;;;;;;;22.70;10.03;;;;;;;-2.90;100.00;101139.44;6216433;23;20028;-90
2023/12/02 07:43:26;;;;;;;26.50;11.52;;;;;;;-2.95;100.00;101141.59;6216234;23;20013;-89
2023/12/02 07:45:52;;;;;;;28.75;11.32;;;;;;;-2.92;100.00;101133.41;6191831;23;20443;-89
2023/12/02 07:48:17;;;;;;;25.63;11.00;;;;;;;-2.89;100.00;101136.69;6190995;23;20012;-89
2023/12/02 07:50:43;;;;;;;29.77;11.67;;;;;;;-2.92;100.00;101134.25;6190870;23;20015;-89
2023/12/02 07:53:08;;;;;;;25.43;10.33;;;;;;;-2.98;100.00;101133.88;6190712;23;20013;-89
2023/12/02 07:55:36;;;;;;;29.60;11.50;;;;;;;-3.07;100.00;101136.31;6216047;23;20008;-89
2023/12/02 07:58:02;;;;;;;28.45;11.90;;;;;;;-3.14;100.00;101144.84;6190975;23;20015;-90
2023/12/02 08:00:27;;;;;;;29.30;10.93;;;;;;;-3.22;100.00;101164.03;6216218;23;20008;-89
2023/12/02 08:02:53;;;;;;;29.63;11.95;;;;;;;-3.25;100.00;101172.22;6216311;23;20027;-89
2023/12/02 08:05:19;;;;;;;31.17;11.67;;;;;;;-3.25;100.00;101172.22;6190793;23;20032;-89
2023/12/02 08:07:46;;;;;;;25.73;10.27;;;;;;;-3.22;100.00;101175.50;6191306;23;20008;-89
2023/12/02 08:10:11;;;;;;;27.67;10.98;;;;;;;-3.22;100.00;101174.66;6190526;23;20040;-89
2023/12/02 08:12:37;;;;;;;30.97;12.33;;;;;;;-3.24;100.00;101171.28;6190672;23;20015;-89
2023/12/02 08:15:02;;;;;;;28.63;11.67;;;;;;;-3.30;100.00;101169.09;6191851;23;20008;-88
2023/12/02 08:17:28;;;;;;;25.38;10.80;;;;;;;-3.33;100.00;101177.28;6215723;23;20044;-90
2023/12/02 08:19:53;;;;;;;28.03;11.13;;;;;;;-3.41;100.00;101177.84;6215603;23;20015;-91
2023/12/02 08:22:24;;;;;;;28.20;10.97;;;;;;;-3.42;100.00;101195.59;6215662;23;20009;-93
2023/12/02 08:24:49;;;;;;;31.90;12.38;;;;;;;-3.47;100.00;101195.09;6216275;23;20012;-89
2023/12/02 08:27:15;;;;;;;28.57;11.23;;;;;;;-3.47;100.00;101199.53;6216141;23;20012;-91
2023/12/02 08:29:40;;;;;;;26.30;11.48;;;;;;;-3.48;100.00;101197.84;6217493;23;20462;-90
2023/12/02 08:32:06;;;;;;;28.20;11.10;;;;;;;-3.48;100.00;101203.16;6215615;23;20008;-86
2023/12/02 08:34:31;;;;;;;31.08;11.90;;;;;;;-3.45;100.00;101210.91;6215928;23;20011;-87
2023/12/02 08:36:57;;;;;;;31.58;11.80;;;;;;;-3.48;100.00;101214.63;6191134;23;20418;-87
2023/12/02 08:39:22;;;;;;;29.83;11.17;;;;;;;-3.47;100.00;101215.47;6215626;23;20005;-87
2023/12/02 08:41:50;;;;;;;27.17;11.03;;;;;;;-3.46;100.00;101223.31;6190190;23;20012;-87
2023/12/02 08:44:16;;;;;;;28.02;11.80;;;;;;;-3.45;100.00;101222.34;6216773;23;20431;-87
2023/12/02 08:46:41;;;;;;;27.23;11.13;;;;;;;-3.44;100.00;101226.72;6190206;23;20015;-86
2023/12/02 08:49:06;;;;;;;29.17;11.52;;;;;;;-3.44;100.00;101236.47;6164882;23;20028;-87
2023/12/02 08:51:32;;;;;;;27.97;11.27;;;;;;;-3.42;100.00;101235.38;6190190;23;20072;-87
2023/12/02 08:54:02;;;;;;;31.10;12.70;;;;;;;-3.37;100.00;101240.34;6165282;23;20016;-87
2023/12/02 08:56:28;;;;;;;31.77;12.05;;;;;;;-3.36;100.00;101232.28;6190012;23;20012;-87
2023/12/02 08:58:54;;;;;;;32.60;12.63;;;;;;;-3.33;100.00;101233.03;6143150;23;20023;-87
2023/12/02 09:01:22;;;;;;;35.53;13.75;;;;;;;-3.33;100.00;101231.19;6188761;23;20301;-87
2023/12/02 09:03:48;;;;;;;32.75;13.10;;;;;;;-3.30;100.00;101225.66;6189906;23;20012;-87
2023/12/02 09:06:13;;;;;;;28.23;11.90;;;;;;;-3.23;100.00;101242.81;6217899;23;20131;-87
2023/12/02 09:08:39;;;;;;;28.40;12.17;;;;;;;-3.21;100.00;101237.38;6165146;23;20364;-87
2023/12/02 09:11:08;;;;;;;28.60;11.88;;;;;;;-3.20;100.00;101234.63;6189694;23;20015;-87
2023/12/02 09:13:39;;;;;;;31.33;13.02;;;;;;;-3.13;100.00;101245.63;6189995;23;20012;-87
2023/12/02 09:16:09;;;;;;;28.30;12.10;;;;;;;-3.12;100.00;101242.00;6190136;23;20004;-87
2023/12/02 09:18:36;;;;;;;31.80;13.25;;;;;;;-3.09;100.00;101244.41;6190285;23;20005;-87
2023/12/02 09:21:02;;;;;;;35.25;14.32;;;;;;;-3.01;100.00;101249.16;6189500;23;20012;-86
2023/12/02 09:23:30;;;;;;;31.13;12.63;;;;;;;-2.93;100.00;101243.25;6214798;23;20435;-86
2023/12/02 09:26:03;;;;;;;35.15;12.50;;;;;;;-2.88;100.00;101241.06;6190007;23;20720;-87
2023/12/02 09:28:29;;;;;;;30.30;12.38;;;;;;;-2.85;100.00;101244.34;6189198;23;20419;-85
2023/12/02 09:31:08;;;;;;;34.00;12.35;;;;;;;-2.76;100.00;101252.56;6216150;23;20036;-87
2023/12/02 09:33:34;;;;;;;32.85;12.32;;;;;;;-2.70;100.00;101246.78;6165488;23;20036;-87
2023/12/02 09:36:03;;;;;;;33.43;13.90;;;;;;;-2.63;100.00;101245.34;6165735;23;20008;-86
2023/12/02 09:38:28;;;;;;;33.75;13.27;;;;;;;-2.55;100.00;101256.22;6190438;23;20294;-87
2023/12/02 09:41:12;;;;;;;35.45;14.25;;;;;;;-2.43;100.00;101259.72;6164950;23;20009;-87
2023/12/02 09:43:59;;;;;;;30.27;12.70;;;;;;;-2.32;100.00;101259.75;6190810;23;20051;-87
2023/12/02 09:46:41;;;;;;;33.42;12.63;;;;;;;-2.18;100.00;101263.94;6220184;23;20074;-87
2023/12/02 09:49:06;;;;;;;30.55;13.05;;;;;;;-2.15;100.00;101274.34;6219875;23;20004;-86
2023/12/02 09:51:47;;;;;;;33.93;13.13;;;;;;;-2.17;100.00;101267.44;6221643;23;20034;-87
2023/12/02 09:54:15;;;;;;;34.38;13.40;;;;;;;-2.15;100.00;101269.00;6219527;23;20422;-87
2023/12/02 09:56:44;;;;;;;29.73;12.85;;;;;;;-2.18;100.00;101266.59;6218903;23;20031;-87
2023/12/02 09:59:32;;;;;;;35.43;12.77;;;;;;;-2.20;100.00;101262.38;6246428;23;20004;-87
2023/12/02 10:02:10;;;;;;;33.80;14.10;;;;;;;-2.14;100.00;101261.88;6219699;23;20092;-87
2023/12/02 10:04:48;;;;;;;30.83;12.80;;;;;;;-2.00;100.00;101268.75;6219763;23;20008;-86
2023/12/02 10:07:38;;;;;;;34.15;13.23;;;;;;;-1.86;100.00;101260.53;6219564;23;20007;-87
2023/12/02 10:10:09;;;;;;;32.08;13.13;;;;;;;-1.74;100.00;101249.84;6219542;23;20012;-87
2023/12/02 10:13:02;;;;;;;34.03;14.00;;;;;;;-1.56;100.00;101243.03;6219504;23;20059;-87
2023/12/02 10:15:32;;;;;;;31.30;12.98;;;;;;;-1.36;100.00;101251.16;6246744;23;20038;-87
2023/12/02 10:18:12;;;;;;;30.92;12.65;;;;;;;-1.19;100.00;101250.59;6246924;23;20011;-87
2023/12/02 10:20:42;;;;;;;33.53;13.55;;;;;;;-1.04;100.00;101253.78;6246559;23;20034;-86
2023/12/02 10:23:28;;;;;;;30.85;13.02;;;;;;;-0.93;100.00;101258.19;6219947;23;20008;-87
2023/12/02 10:25:54;;;;;;;28.93;12.43;;;;;;;-0.87;100.00;101263.03;6246426;23;20008;-87
2023/12/02 10:28:22;;;;;;;29.48;13.00;;;;;;;-0.91;100.00;101259.75;6246269;23;20079;-87
2023/12/02 10:30:50;;;;;;;29.70;12.03;;;;;;;-0.91;100.00;101267.75;6219486;23;20047;-87
2023/12/02 10:33:38;;;;;;;29.83;12.38;;;;;;;-0.97;100.00;101262.13;6219710;23;20019;-88
2023/12/02 10:36:07;;;;;;;29.35;12.48;;;;;;;-1.04;100.00;101269.78;6219506;23;20050;-87
2023/12/02 10:38:42;;;;;;;31.25;12.48;;;;;;;-0.97;100.00;101264.78;6195087;23;20004;-87
2023/12/02 10:41:26;;;;;;;29.25;13.30;;;;;;;-0.87;100.00;101268.34;6247652;23;20011;-86
2023/12/02 10:43:58;;;;;;;29.50;12.50;;;;;;;-0.62;100.00;101260.91;6248254;23;20106;-87
2023/12/02 10:46:26;;;;;;;28.17;12.30;;;;;;;-0.13;100.00;101266.44;6248094;23;20004;-87
2023/12/02 10:48:54;;;;;;;29.08;12.80;;;;;;;0.30;100.00;101266.16;6221110;23;20004;-87
2023/12/02 10:51:23;;;;;;;27.05;11.90;;;;;;;0.52;100.00;101270.41;6248342;23;20031;-92
2023/12/02 10:53:51;;;;;;;30.10;12.63;;;;;;;0.42;100.00;101268.72;6221492;23;20022;-87
2023/12/02 10:56:23;;;;;;;26.20;12.23;;;;;;;0.53;100.00;101268.56;6248331;23;20011;-87
2023/12/02 10:58:49;;;;;;;29.67;12.80;;;;;;;0.69;100.00;101265.34;6248333;23;20050;-86
2023/12/02 11:01:29;;;;;;;29.17;12.38;;;;;;;0.61;100.00;101271.38;6221369;23;20014;-86
2023/12/02 11:04:24;;;;;;;29.35;12.82;;;;;;;0.26;100.00;101270.06;6221700;23;20008;-87